KHII Airport Information

Runway Information
Runway 14 Length 8001 ft width 100 ft
Elevation 746 ft Threshold 0 ft Heading 150
Runway 32 Length 8001 ft Width 100 ft
Elevation 783 ft Threshold 0 ft Heading 330
Airport Frequencies
Type AWOS Name AWOS 3 Frequency 119.025 MHZ
Type CNTR Name LOS ANGELE Frequency 134.65 MHZ
Type UNIC Name CTAF/UNICO Frequency 122.7 MHZ
Airport Navaids
Airport Weather Information & NOTAM
ADDS - METARS form results

(0213 UTC 23 October 2021)
Data provider http://aviationweather.gov/metar/data/
 
METAR text: KHII 230155Z AUTO 11008KT 10SM CLR 27/M07 A2980 RMK AO2
Conditions at: KHII (LAKE HAVASU CITY, AZ, US) observed 0155 UTC 23 October 2021
Temperature: 27.0°C (81°F)
Dewpoint: -7.0°C (19°F) [RH = 10%]
Pressure (altimeter): 29.80 inches Hg (1009.2 mb)
Winds: from the ESE (110 degrees) at 9 MPH (8 knots; 4.1 m/s)
Visibility: 10 or more miles (16+ km)
Ceiling: at least 12,000 feet AGL
Clouds: sky clear below 12,000 feet AGL
Weather: automated observation with no human augmentation;
there may or may not be significant weather present at this time

METAR text: KHII 230135Z AUTO 10006KT 10SM CLR 27/M07 A2980 RMK AO2
Conditions at: KHII (LAKE HAVASU CITY, AZ, US) observed 0135 UTC 23 October 2021
Temperature: 27.0°C (81°F)
Dewpoint: -7.0°C (19°F) [RH = 10%]
Pressure (altimeter): 29.80 inches Hg (1009.2 mb)
Winds: from the E (100 degrees) at 7 MPH (6 knots; 3.1 m/s)
Visibility: 10 or more miles (16+ km)
Ceiling: at least 12,000 feet AGL
Clouds: sky clear below 12,000 feet AGL
Weather: automated observation with no human augmentation;
there may or may not be significant weather present at this time

METAR text: KHII 230115Z AUTO 12004KT 10SM CLR 28/M07 A2981 RMK AO2
Conditions at: KHII (LAKE HAVASU CITY, AZ, US) observed 0115 UTC 23 October 2021
Temperature: 28.0°C (82°F)
Dewpoint: -7.0°C (19°F) [RH = 10%]
Pressure (altimeter): 29.81 inches Hg (1009.6 mb)
Winds: from the ESE (120 degrees) at 5 MPH (4 knots; 2.1 m/s)
Visibility: 10 or more miles (16+ km)
Ceiling: at least 12,000 feet AGL
Clouds: sky clear below 12,000 feet AGL
Weather: automated observation with no human augmentation;
there may or may not be significant weather present at this time